La Espada — WDI7035 — position and weather

sailwx.info

Track history (hours):
 
Tides and Currents Weather Stations Pressure Air Temp Water Temp Dewpoint Dewpoint Depression Visibility Wind Speed Wind Dir Waves Ship Positions

La Espada

Owner: Harbor Breeze Cruises, Inc., Rancho Palos Verdes, CA. More information available from US FCC via Universal Licensing System and Coast Guard Vessel Documentation Center.

Last reported at 2017-Nov-19 01:23 UTC. Time now 2017-Nov-22 09:18 UTC.
Position N 33°44' W 118°12'.

Length 25 m.

MMSI: 367724740.

Date/timePositionNaut miles runAvg speedWind from/ knotsBaromVisibWave heightAir tempDewpointWater temp
2017-Nov-19 01:23N 33°44' W 118°12'614.6
2017-Nov-19 01:01N 33°41' W 118°18'4 8.1
2017-Nov-19 00:30N 33°41' W 118°23'5 7.1
2017-Nov-18 23:50N 33°41' W 118°17'617.0
2017-Nov-18 23:30N 33°44' W 118°11'2 2.4
2017-Nov-18 22:43N 33°46' W 118°12'2 9.1
2017-Nov-18 22:30N 33°44' W 118°11'713.0
2017-Nov-18 21:59N 33°40' W 118°18'5 8.3
2017-Nov-18 21:23N 33°37' W 118°13'1 3.6
2017-Nov-18 21:00N 33°39' W 118°14'3 0.2
2017-Nov-18 01:17N 33°38' W 118°10'5 1.9
2017-Nov-17 22:34N 33°41' W 118°15'4 0.1
2017-Nov-15 23:26N 33°44' W 118°17'1 1.7
2017-Nov-15 22:41N 33°43' W 118°16'4 0.1
2017-Nov-13 21:39N 33°45' W 118°11'8 0.4
2017-Nov-13 01:15N 33°37' W 118°15'520.2
2017-Nov-13 01:00N 33°34' W 118°19'3 5.0
2017-Nov-13 00:30N 33°33' W 118°22'612.3
2017-Nov-12 23:59N 33°38' W 118°17'9 6.4
2017-Nov-12 22:35N 33°46' W 118°12'0 5.0
2017-Nov-12 22:30N 33°45' W 118°11'816.6
2017-Nov-12 22:00N 33°37' W 118°14'5 8.9
2017-Nov-12 21:30N 33°35' W 118°19'2 3.9
2017-Nov-12 20:59N 33°37' W 118°18'5 0.3
2017-Nov-12 00:42N 33°41' W 118°22'3 4.3
2017-Nov-11 23:55N 33°41' W 118°18'3 1.6
2017-Nov-11 22:08N 33°40' W 118°15'0 0.3
2017-Nov-11 21:06N 33°40' W 118°14'  
Track history (hours):
 
Tides and Currents Weather Stations Pressure Air Temp Water Temp Dewpoint Dewpoint Depression Visibility Wind Speed Wind Dir Waves Ship Positions

La Espada

Owner: Harbor Breeze Cruises, Inc., Rancho Palos Verdes, CA. More information available from US FCC via Universal Licensing System and Coast Guard Vessel Documentation Center.

Last reported at 2017-Nov-19 01:23 UTC. Time now 2017-Nov-22 09:18 UTC.
Position N 33°44' W 118°12'.

Length 25 m.

MMSI: 367724740.

Date/timePositionNaut miles runAvg speedWind from/ knotsBaromVisibWave heightAir tempDewpointWater temp
2017-Nov-19 01:23N 33°44' W 118°12'614.6
2017-Nov-19 01:01N 33°41' W 118°18'4 8.1
2017-Nov-19 00:30N 33°41' W 118°23'5 7.1
2017-Nov-18 23:50N 33°41' W 118°17'617.0
2017-Nov-18 23:30N 33°44' W 118°11'2 2.4
2017-Nov-18 22:43N 33°46' W 118°12'2 9.1
2017-Nov-18 22:30N 33°44' W 118°11'713.0
2017-Nov-18 21:59N 33°40' W 118°18'5 8.3
2017-Nov-18 21:23N 33°37' W 118°13'1 3.6
2017-Nov-18 21:00N 33°39' W 118°14'3 0.2
2017-Nov-18 01:17N 33°38' W 118°10'5 1.9
2017-Nov-17 22:34N 33°41' W 118°15'4 0.1
2017-Nov-15 23:26N 33°44' W 118°17'1 1.7
2017-Nov-15 22:41N 33°43' W 118°16'4 0.1
2017-Nov-13 21:39N 33°45' W 118°11'8 0.4
2017-Nov-13 01:15N 33°37' W 118°15'520.2
2017-Nov-13 01:00N 33°34' W 118°19'3 5.0
2017-Nov-13 00:30N 33°33' W 118°22'612.3
2017-Nov-12 23:59N 33°38' W 118°17'9 6.4
2017-Nov-12 22:35N 33°46' W 118°12'0 5.0
2017-Nov-12 22:30N 33°45' W 118°11'816.6
2017-Nov-12 22:00N 33°37' W 118°14'5 8.9
2017-Nov-12 21:30N 33°35' W 118°19'2 3.9
2017-Nov-12 20:59N 33°37' W 118°18'5 0.3
2017-Nov-12 00:42N 33°41' W 118°22'3 4.3
2017-Nov-11 23:55N 33°41' W 118°18'3 1.6
2017-Nov-11 22:08N 33°40' W 118°15'0 0.3
2017-Nov-11 21:06N 33°40' W 118°14'  

Dump ship's entire track history